Terminal Aerodrome Forecast
Issued by NWS Billings, MT

Home | Current Version | Previous Version | Text Only | Print | Product List | Glossary On
Versions: 1 2 3 4 5 6 7 8 9 10 11 12 13 14 15 16 17 18 19 20 21 22 23 24 25 26
000
FTUS45 KBYZ 211720
TAFBIL
TAF
KBIL 211720Z 2118/2218 24013G20KT P6SM VCSH FEW100 BKN150
     FM212300 27023G35KT P6SM VCSH BKN080
     FM220300 27018KT P6SM FEW080 SCT120=

USA.gov is the U.S. government's official web portal to all federal, state and local government web resources and services.